Terminal Aerodrome Forecast
Issued by NWS

Home | Current Version | Previous Version | Text Only | Print | Product List | Glossary On
Versions: 1 2 3 4 5 6 7 8 9 10 11 12 13 14 15 16 17 18 19 20 21 22 23 24
401
FTUS44 KCRP 240536
TAFALI
TAF
KALI 240536Z 2406/2506 13007KT P6SM SCT014 BKN024
      TEMPO 2406/2409 BKN014 OVC024
     FM240900 14006KT 5SM BR SCT007 BKN015
      TEMPO 2410/2414 BKN007 OVC015
     FM241400 15012KT P6SM SCT015 BKN025
     FM242100 13015G20KT P6SM SCT030 BKN060
     FM250100 13012KT P6SM SCT020 BKN200
     FM250300 13010KT P6SM BKN015=

USA.gov is the U.S. government's official web portal to all federal, state and local government web resources and services.